PWSweather.com
Personal Weather Stations
Station Observations
FAUSKE
Nordland, Norway, FauskeNO 8200

Nordland, NorwayFauskeNO 8200

Lat: 67.2607586, Lon: 15.4114204

Elevation: 40

Station Type: Davis Vantage PRO2

http://www.bjornli.net/weather.html

Latest ConditionsUpdated 7:00:23 PM GMT+01:01 Sunday, Feb 1, 2015
Currently Today's Max Today's Min Today's Average
Temperature 25.8°F-3.4°C 25.8°F-3.4°C 22.9°F-5.1°C 24.0°F-4.4°C
Dew Point 19.9°F-6.7°C 19.9°F-6.7°C 15.4°F-9.2°C 17.3°F-8.2°C
Winds Calm Calm 7.0 mph NW11.3 kmh NW - 0.3 mph 0.5 kmh
Wind Gusts -- 8.0 mph12.9 kmh - -
Humidity 78% 81% 68% 75%
Pressure 29.23 in989.8 mb 29.39 in995.3 mb 29.23 in989.8 mb -
Hour Temp Dew Point Humidity Winds Wind Gusts Pressure Precip Precip Rate Daily Precip Total
07:00 PM 25.8°F-3.4°C 19.9°F-6.7°C 78% Calm Calm -- 29.23 in989.8 mb 0.00 in0.0 mm 0.00 in/hr0.0 mm/hr 0.00 in0.0 mm
06:40 PM 25.1°F-3.8°C 19.8°F-6.8°C 80% Calm Calm -- 29.23 in989.8 mb 0.00 in0.0 mm 0.00 in/hr0.0 mm/hr 0.00 in0.0 mm
06:30 PM 24.9°F-3.9°C 19.6°F-6.9°C 80% Calm Calm -- 29.23 in989.8 mb 0.00 in0.0 mm 0.00 in/hr0.0 mm/hr 0.00 in0.0 mm
06:10 PM 24.6°F-4.1°C 19.3°F-7.1°C 80% Calm Calm -- 29.23 in989.8 mb 0.00 in0.0 mm 0.00 in/hr0.0 mm/hr 0.00 in0.0 mm
06:00 PM 24.5°F-4.2°C 19.5°F-6.9°C 81% Calm Calm -- 29.23 in989.8 mb 0.00 in0.0 mm 0.00 in/hr0.0 mm/hr 0.00 in0.0 mm
05:40 PM 24.2°F-4.3°C 18.6°F-7.4°C 79% Calm Calm -- 29.23 in989.8 mb 0.00 in0.0 mm 0.00 in/hr0.0 mm/hr 0.00 in0.0 mm
05:30 PM 24.4°F-4.2°C 18.8°F-7.3°C 79% Calm Calm -- 29.23 in989.8 mb 0.00 in0.0 mm 0.00 in/hr0.0 mm/hr 0.00 in0.0 mm
05:10 PM 24.1°F-4.4°C 18.5°F-7.5°C 79% Calm Calm -- 29.23 in989.8 mb 0.00 in0.0 mm 0.00 in/hr0.0 mm/hr 0.00 in0.0 mm
05:00 PM 23.9°F-4.5°C 18.4°F-7.6°C 79% Calm Calm -- 29.23 in989.8 mb 0.00 in0.0 mm 0.00 in/hr0.0 mm/hr 0.00 in0.0 mm
04:40 PM 23.6°F-4.7°C 18.1°F-7.7°C 79% Calm Calm -- 29.23 in989.8 mb 0.00 in0.0 mm 0.00 in/hr0.0 mm/hr 0.00 in0.0 mm
04:30 PM 23.5°F-4.7°C 17.7°F-7.9°C 78% Calm Calm -- 29.23 in989.8 mb 0.00 in0.0 mm 0.00 in/hr0.0 mm/hr 0.00 in0.0 mm
04:10 PM 23.3°F-4.8°C 17.5°F-8.1°C 78% Calm Calm -- 29.23 in989.8 mb 0.00 in0.0 mm 0.00 in/hr0.0 mm/hr 0.00 in0.0 mm
04:00 PM 23.2°F-4.9°C 17.4°F-8.1°C 78% Calm Calm -- 29.23 in989.8 mb 0.00 in0.0 mm 0.00 in/hr0.0 mm/hr 0.00 in0.0 mm
03:40 PM 23.4°F-4.8°C 17.3°F-8.2°C 77% Calm Calm -- 29.23 in989.8 mb 0.00 in0.0 mm 0.00 in/hr0.0 mm/hr 0.00 in0.0 mm
03:30 PM 23.4°F-4.8°C 17.3°F-8.2°C 77% Calm Calm -- 29.23 in989.8 mb 0.00 in0.0 mm 0.00 in/hr0.0 mm/hr 0.00 in0.0 mm
03:10 PM 23.7°F-4.6°C 17.6°F-8.0°C 77% Calm Calm -- 29.23 in989.8 mb 0.00 in0.0 mm 0.00 in/hr0.0 mm/hr 0.00 in0.0 mm
03:00 PM 23.8°F-4.6°C 17.7°F-7.9°C 77% Calm Calm -- 29.23 in989.8 mb 0.00 in0.0 mm 0.00 in/hr0.0 mm/hr 0.00 in0.0 mm
02:40 PM 24.2°F-4.3°C 17.7°F-7.9°C 76% Calm Calm -- 29.24 in990.2 mb 0.00 in0.0 mm 0.00 in/hr0.0 mm/hr 0.00 in0.0 mm
02:30 PM 24.4°F-4.2°C 17.9°F-7.8°C 76% Calm Calm -- 29.24 in990.2 mb 0.00 in0.0 mm 0.00 in/hr0.0 mm/hr 0.00 in0.0 mm
02:10 PM 24.7°F-4.1°C 18.2°F-7.7°C 76% Calm Calm -- 29.24 in990.2 mb 0.00 in0.0 mm 0.00 in/hr0.0 mm/hr 0.00 in0.0 mm
02:00 PM 24.7°F-4.1°C 18.2°F-7.7°C 76% Calm Calm -- 29.24 in990.2 mb 0.00 in0.0 mm 0.00 in/hr0.0 mm/hr 0.00 in0.0 mm
01:40 PM 24.8°F-4.0°C 18.6°F-7.4°C 77% Calm Calm -- 29.24 in990.2 mb 0.00 in0.0 mm 0.00 in/hr0.0 mm/hr 0.00 in0.0 mm
01:30 PM 24.6°F-4.1°C 18.4°F-7.6°C 77% Calm Calm -- 29.25 in990.5 mb 0.00 in0.0 mm 0.00 in/hr0.0 mm/hr 0.00 in0.0 mm
01:10 PM 24.5°F-4.2°C 18.6°F-7.4°C 78% Calm Calm -- 29.25 in990.5 mb 0.00 in0.0 mm 0.00 in/hr0.0 mm/hr 0.00 in0.0 mm
01:00 PM 24.4°F-4.2°C 18.5°F-7.5°C 78% Calm Calm -- 29.26 in990.9 mb 0.00 in0.0 mm 0.00 in/hr0.0 mm/hr 0.00 in0.0 mm
12:40 PM 24.2°F-4.3°C 17.7°F-7.9°C 76% Calm Calm -- 29.26 in990.9 mb 0.00 in0.0 mm 0.00 in/hr0.0 mm/hr 0.00 in0.0 mm
12:30 PM 24.0°F-4.4°C 17.6°F-8.0°C 76% Calm Calm -- 29.27 in991.2 mb 0.00 in0.0 mm 0.00 in/hr0.0 mm/hr 0.00 in0.0 mm
12:10 PM 23.6°F-4.7°C 17.2°F-8.2°C 76% Calm Calm -- 29.27 in991.2 mb 0.00 in0.0 mm 0.00 in/hr0.0 mm/hr 0.00 in0.0 mm
12:00 PM 23.7°F-4.6°C 17.3°F-8.2°C 76% Calm Calm -- 29.27 in991.2 mb 0.00 in0.0 mm 0.00 in/hr0.0 mm/hr 0.00 in0.0 mm
11:40 AM 23.5°F-4.7°C 17.4°F-8.1°C 77% Calm Calm -- 29.27 in991.2 mb 0.00 in0.0 mm 0.00 in/hr0.0 mm/hr 0.00 in0.0 mm
11:30 AM 23.3°F-4.8°C 17.2°F-8.2°C 77% Calm Calm -- 29.27 in991.2 mb 0.00 in0.0 mm 0.00 in/hr0.0 mm/hr 0.00 in0.0 mm
11:10 AM 23.3°F-4.8°C 16.9°F-8.4°C 76% Calm Calm -- 29.28 in991.5 mb 0.00 in0.0 mm 0.00 in/hr0.0 mm/hr 0.00 in0.0 mm
11:00 AM 23.2°F-4.9°C 16.8°F-8.4°C 76% Calm Calm -- 29.29 in991.9 mb 0.00 in0.0 mm 0.00 in/hr0.0 mm/hr 0.00 in0.0 mm
10:40 AM 23.5°F-4.7°C 17.1°F-8.3°C 76% Calm Calm -- 29.29 in991.9 mb 0.00 in0.0 mm 0.00 in/hr0.0 mm/hr 0.00 in0.0 mm
10:30 AM 23.7°F-4.6°C 17.0°F-8.3°C 75% Calm Calm -- 29.29 in991.9 mb 0.00 in0.0 mm 0.00 in/hr0.0 mm/hr 0.00 in0.0 mm
10:10 AM 24.3°F-4.3°C 17.5°F-8.1°C 75% Calm Calm -- 29.29 in991.9 mb 0.00 in0.0 mm 0.00 in/hr0.0 mm/hr 0.00 in0.0 mm
10:00 AM 24.1°F-4.4°C 17.3°F-8.2°C 75% Calm Calm -- 29.29 in991.9 mb 0.00 in0.0 mm 0.00 in/hr0.0 mm/hr 0.00 in0.0 mm
09:40 AM 23.7°F-4.6°C 17.3°F-8.2°C 76% Calm Calm -- 29.30 in992.2 mb 0.00 in0.0 mm 0.00 in/hr0.0 mm/hr 0.00 in0.0 mm
09:30 AM 23.7°F-4.6°C 17.3°F-8.2°C 76% Calm Calm -- 29.31 in992.6 mb 0.00 in0.0 mm 0.00 in/hr0.0 mm/hr 0.00 in0.0 mm
09:10 AM 23.5°F-4.7°C 17.4°F-8.1°C 77% Calm Calm 2.0 mph3.2 kmh 29.31 in992.6 mb 0.00 in0.0 mm 0.00 in/hr0.0 mm/hr 0.00 in0.0 mm
09:00 AM 24.1°F-4.4°C 17.6°F-8.0°C 76% Calm Calm -- 29.31 in992.6 mb 0.00 in0.0 mm 0.00 in/hr0.0 mm/hr 0.00 in0.0 mm
08:40 AM 24.5°F-4.2°C 17.4°F-8.1°C 74% Calm Calm -- 29.31 in992.6 mb 0.00 in0.0 mm 0.00 in/hr0.0 mm/hr 0.00 in0.0 mm
08:30 AM 24.5°F-4.2°C 17.7°F-7.9°C 75% Calm Calm -- 29.32 in992.9 mb 0.00 in0.0 mm 0.00 in/hr0.0 mm/hr 0.00 in0.0 mm
08:10 AM 24.2°F-4.3°C 17.7°F-7.9°C 76% Calm Calm -- 29.32 in992.9 mb 0.00 in0.0 mm 0.00 in/hr0.0 mm/hr 0.00 in0.0 mm
08:00 AM 24.1°F-4.4°C 17.6°F-8.0°C 76% Calm Calm -- 29.32 in992.9 mb 0.00 in0.0 mm 0.00 in/hr0.0 mm/hr 0.00 in0.0 mm
07:40 AM 23.4°F-4.8°C 17.6°F-8.0°C 78% Calm Calm -- 29.32 in992.9 mb 0.00 in0.0 mm 0.00 in/hr0.0 mm/hr 0.00 in0.0 mm
07:30 AM 23.4°F-4.8°C 17.6°F-8.0°C 78% Calm Calm -- 29.32 in992.9 mb 0.00 in0.0 mm 0.00 in/hr0.0 mm/hr 0.00 in0.0 mm
07:10 AM 23.3°F-4.8°C 17.2°F-8.2°C 77% Calm Calm -- 29.32 in992.9 mb 0.00 in0.0 mm 0.00 in/hr0.0 mm/hr 0.00 in0.0 mm
07:00 AM 23.2°F-4.9°C 17.1°F-8.3°C 77% Calm Calm -- 29.32 in992.9 mb 0.00 in0.0 mm 0.00 in/hr0.0 mm/hr 0.00 in0.0 mm
06:40 AM 22.9°F-5.1°C 16.5°F-8.6°C 76% Calm Calm -- 29.32 in992.9 mb 0.00 in0.0 mm 0.00 in/hr0.0 mm/hr 0.00 in0.0 mm
06:30 AM 23.0°F-5.0°C 16.6°F-8.6°C 76% Calm Calm -- 29.33 in993.2 mb 0.00 in0.0 mm 0.00 in/hr0.0 mm/hr 0.00 in0.0 mm
06:10 AM 23.4°F-4.8°C 17.0°F-8.3°C 76% Calm Calm -- 29.33 in993.2 mb 0.00 in0.0 mm 0.00 in/hr0.0 mm/hr 0.00 in0.0 mm
06:00 AM 23.7°F-4.6°C 17.0°F-8.3°C 75% Calm Calm -- 29.33 in993.2 mb 0.00 in0.0 mm 0.00 in/hr0.0 mm/hr 0.00 in0.0 mm
05:40 AM 24.1°F-4.4°C 16.7°F-8.5°C 73% Calm Calm 5.0 mph8.0 kmh 29.33 in993.2 mb 0.00 in0.0 mm 0.00 in/hr0.0 mm/hr 0.00 in0.0 mm
05:30 AM 24.1°F-4.4°C 16.7°F-8.5°C 73% Calm Calm -- 29.33 in993.2 mb 0.00 in0.0 mm 0.00 in/hr0.0 mm/hr 0.00 in0.0 mm
05:10 AM 23.2°F-4.9°C 16.5°F-8.6°C 75% Calm Calm 1.0 mph1.6 kmh 29.33 in993.2 mb 0.00 in0.0 mm 0.00 in/hr0.0 mm/hr 0.00 in0.0 mm
05:00 AM 23.3°F-4.8°C 16.6°F-8.6°C 75% Calm Calm -- 29.34 in993.6 mb 0.00 in0.0 mm 0.00 in/hr0.0 mm/hr 0.00 in0.0 mm
04:40 AM 24.1°F-4.4°C 16.7°F-8.5°C 73% Calm Calm -- 29.34 in993.6 mb 0.00 in0.0 mm 0.00 in/hr0.0 mm/hr 0.00 in0.0 mm
04:30 AM 24.6°F-4.1°C 16.6°F-8.6°C 71% Calm Calm -- 29.34 in993.6 mb 0.00 in0.0 mm 0.00 in/hr0.0 mm/hr 0.00 in0.0 mm
04:10 AM 23.7°F-4.6°C 16.3°F-8.7°C 73% 7.0 mph NW11.3 kmh NW 7.0 mph11.3 kmh 29.35 in993.9 mb 0.00 in0.0 mm 0.00 in/hr0.0 mm/hr 0.00 in0.0 mm
04:00 AM 23.9°F-4.5°C 16.2°F-8.8°C 72% 3.0 mph N4.8 kmh N 6.0 mph9.7 kmh 29.36 in994.2 mb 0.00 in0.0 mm 0.00 in/hr0.0 mm/hr 0.00 in0.0 mm
03:40 AM 24.7°F-4.1°C 16.3°F-8.7°C 70% 4.0 mph NNE6.4 kmh NNE 6.0 mph9.7 kmh 29.36 in994.2 mb 0.00 in0.0 mm 0.00 in/hr0.0 mm/hr 0.00 in0.0 mm
03:30 AM 24.9°F-3.9°C 16.5°F-8.6°C 70% 1.0 mph NNE1.6 kmh NNE 3.0 mph4.8 kmh 29.36 in994.2 mb 0.00 in0.0 mm 0.00 in/hr0.0 mm/hr 0.00 in0.0 mm
03:10 AM 24.4°F-4.2°C 16.0°F-8.9°C 70% 3.0 mph NE4.8 kmh NE 7.0 mph11.3 kmh 29.36 in994.2 mb 0.00 in0.0 mm 0.00 in/hr0.0 mm/hr 0.00 in0.0 mm
03:00 AM 24.3°F-4.3°C 15.9°F-8.9°C 70% Calm Calm -- 29.36 in994.2 mb 0.00 in0.0 mm 0.00 in/hr0.0 mm/hr 0.00 in0.0 mm
02:40 AM 24.4°F-4.2°C 15.7°F-9.1°C 69% Calm Calm 8.0 mph12.9 kmh 29.37 in994.6 mb 0.00 in0.0 mm 0.00 in/hr0.0 mm/hr 0.00 in0.0 mm
02:30 AM 24.7°F-4.1°C 15.7°F-9.1°C 68% 3.0 mph NNE4.8 kmh NNE 4.0 mph6.4 kmh 29.37 in994.6 mb 0.00 in0.0 mm 0.00 in/hr0.0 mm/hr 0.00 in0.0 mm
02:10 AM 24.8°F-4.0°C 15.8°F-9.0°C 68% 1.0 mph N1.6 kmh N 7.0 mph11.3 kmh 29.37 in994.6 mb 0.00 in0.0 mm 0.00 in/hr0.0 mm/hr 0.00 in0.0 mm
02:00 AM 24.8°F-4.0°C 15.8°F-9.0°C 68% Calm Calm -- 29.38 in994.9 mb 0.00 in0.0 mm 0.00 in/hr0.0 mm/hr 0.00 in0.0 mm
01:40 AM 24.4°F-4.2°C 15.7°F-9.1°C 69% 1.0 mph N1.6 kmh N 5.0 mph8.0 kmh 29.38 in994.9 mb 0.00 in0.0 mm 0.00 in/hr0.0 mm/hr 0.00 in0.0 mm
01:30 AM 24.2°F-4.3°C 15.5°F-9.2°C 69% Calm Calm -- 29.38 in994.9 mb 0.00 in0.0 mm 0.00 in/hr0.0 mm/hr 0.00 in0.0 mm
01:10 AM 23.9°F-4.5°C 15.9°F-8.9°C 71% 1.0 mph N1.6 kmh N 3.0 mph4.8 kmh 29.38 in994.9 mb 0.00 in0.0 mm 0.00 in/hr0.0 mm/hr 0.00 in0.0 mm
01:00 AM 23.4°F-4.8°C 15.4°F-9.2°C 71% Calm Calm -- 29.39 in995.3 mb 0.00 in0.0 mm 0.00 in/hr0.0 mm/hr 0.00 in0.0 mm